createdAt,value
2019-04-24T00:00:34.508Z,12.2
2019-04-24T00:05:49.506Z,12.2
2019-04-24T00:10:35.421Z,12.2
2019-04-24T00:20:34.163Z,12.3
2019-04-24T00:25:37.842Z,12.3
2019-04-24T00:30:29.143Z,12.3
2019-04-24T00:35:30.768Z,12.2
2019-04-24T00:40:31.811Z,12.1
2019-04-24T00:45:48.109Z,12.1
2019-04-24T00:50:32.884Z,12
2019-04-24T00:55:34.442Z,12
2019-04-24T01:00:40.459Z,12
2019-04-24T01:10:37.794Z,12
2019-04-24T01:35:39.848Z,11.9
2019-04-24T01:40:32.844Z,11.9
2019-04-24T01:45:36.046Z,11.9
2019-04-24T01:50:43.813Z,12
2019-04-24T01:55:22.195Z,12
2019-04-24T02:00:43.152Z,12
2019-04-24T02:05:26.253Z,11.9
2019-04-24T02:15:32.127Z,11.7
2019-04-24T02:25:41.778Z,11.6
2019-04-24T02:30:49.552Z,11.5
2019-04-24T02:50:33.015Z,11.5
2019-04-24T02:55:20.711Z,11.5
2019-04-24T03:00:42.271Z,11.5
2019-04-24T03:05:48.484Z,11.5
2019-04-24T03:20:56.952Z,11.8
2019-04-24T03:31:01.013Z,12
2019-04-24T03:41:20.649Z,12.1
2019-04-24T03:45:44.206Z,12.2
2019-04-24T04:05:35.750Z,12.4
2019-04-24T04:15:31.193Z,12.6
2019-04-24T04:25:47.502Z,12.7
2019-04-24T04:30:55.973Z,12.7
2019-04-24T04:35:36.188Z,12.6
2019-04-24T04:50:49.898Z,12.8
2019-04-24T05:00:45.019Z,13
2019-04-24T05:05:55.876Z,13.2
2019-04-24T05:10:37.176Z,13.2
2019-04-24T05:15:27.977Z,13.3
2019-04-24T05:30:36.866Z,13.3
2019-04-24T05:40:43.666Z,13.2
2019-04-24T05:45:37.986Z,13.1
2019-04-24T05:50:48.415Z,13.1
2019-04-24T05:55:43.798Z,13.1
2019-04-24T06:01:04.610Z,13
2019-04-24T06:05:46.075Z,12.9
2019-04-24T06:30:43.289Z,13.4
2019-04-24T06:36:50.715Z,13.5
2019-04-24T06:40:49.815Z,13.6
2019-04-24T07:05:24.624Z,14.2
2019-04-24T07:15:46.499Z,14.5
2019-04-24T07:20:50.684Z,14.6
2019-04-24T07:25:47.568Z,14.7
2019-04-24T07:30:39.721Z,14.7
2019-04-24T07:35:45.072Z,14.7
2019-04-24T07:40:42.801Z,14.8
2019-04-24T07:45:46.850Z,14.8
2019-04-24T07:50:40.923Z,14.8
2019-04-24T07:55:42.645Z,14.9
2019-04-24T08:10:30.307Z,15.1
2019-04-24T08:15:31.788Z,15.3
2019-04-24T08:25:33.224Z,15.6
2019-04-24T08:30:42.197Z,15.8
2019-04-24T08:35:48.553Z,15.9
2019-04-24T08:45:22.863Z,16.1
2019-04-24T08:51:01.342Z,16.1
2019-04-24T09:00:49.587Z,16.1
2019-04-24T09:05:42.152Z,16.2
2019-04-24T09:10:53.113Z,16.5
2019-04-24T09:15:47.150Z,17
2019-04-24T09:20:31.854Z,17.3
2019-04-24T09:25:35.315Z,17.4
2019-04-24T09:30:30.335Z,17.6
2019-04-24T09:50:44.800Z,18.1
2019-04-24T09:55:35.783Z,18.6
2019-04-24T10:00:39.791Z,19.3
2019-04-24T10:10:27.764Z,19.6
2019-04-24T10:15:38.849Z,19.4
2019-04-24T10:20:23.717Z,19.5
2019-04-24T10:30:34.655Z,19.5
2019-04-24T10:35:38.797Z,20.1
2019-04-24T10:45:28.052Z,20.2
2019-04-24T10:50:33.024Z,20.4
2019-04-24T11:00:31.544Z,20.6
2019-04-24T11:05:38.722Z,20.5
2019-04-24T11:15:40.554Z,20.4
2019-04-24T11:20:33.018Z,20.3
2019-04-24T11:25:33.945Z,20.4
2019-04-24T11:30:28.289Z,20.8
2019-04-24T11:35:24.785Z,20.6
2019-04-24T11:45:35.548Z,20.7
2019-04-24T11:51:08.051Z,20.7
2019-04-24T12:00:10.827Z,20.8
2019-04-24T12:05:28.252Z,21.1
2019-04-24T12:10:31.038Z,21.8
2019-04-24T12:15:27.824Z,21.9
2019-04-24T12:20:23.322Z,22.1
2019-04-24T12:25:40.940Z,21.8
2019-04-24T12:30:26.200Z,21.7
2019-04-24T12:45:28.451Z,21.8
2019-04-24T12:55:33.785Z,21.6
2019-04-24T13:00:28.545Z,21.9
2019-04-24T13:15:32.093Z,22
2019-04-24T13:20:04.879Z,22.4
2019-04-24T13:25:31.501Z,22.7
2019-04-24T13:30:32.389Z,22.5
2019-04-24T13:35:23.540Z,22.3
2019-04-24T13:40:35.698Z,22.3
2019-04-24T13:45:36.485Z,22.5
2019-04-24T13:55:33.121Z,22.6
2019-04-24T14:00:38.050Z,22.5
2019-04-24T14:05:35.778Z,22.6
2019-04-24T14:10:43.382Z,22.8
2019-04-24T14:15:30.926Z,22.8
2019-04-24T14:20:33.678Z,22.7
2019-04-24T14:25:37.126Z,22.7
2019-04-24T14:30:39.203Z,22.4
2019-04-24T14:40:36.920Z,22.3
2019-04-24T14:50:31.573Z,22
2019-04-24T14:55:27.555Z,21.9
2019-04-24T15:00:31.749Z,21.9
2019-04-24T15:05:33.910Z,21.7
2019-04-24T15:15:29.401Z,21.8
2019-04-24T15:20:23.801Z,21.5
2019-04-24T15:25:35.888Z,21.2
2019-04-24T15:30:28.881Z,21.3
2019-04-24T15:35:33.939Z,21.7
2019-04-24T15:40:38.757Z,21.4
2019-04-24T15:45:28.722Z,21.1
2019-04-24T15:50:46.718Z,21
2019-04-24T15:55:01.655Z,21
2019-04-24T16:00:27.375Z,21.2
2019-04-24T16:05:01.609Z,21
2019-04-24T16:10:02.935Z,21
2019-04-24T16:15:28.073Z,20.8
2019-04-24T16:20:44.775Z,20.7
2019-04-24T16:25:23.685Z,20.2
2019-04-24T16:30:19.306Z,20.1
2019-04-24T16:35:51.495Z,20
2019-04-24T16:40:40.273Z,19.8
2019-04-24T16:45:25.435Z,19.6
2019-04-24T16:55:32.742Z,19.3
2019-04-24T17:05:49.207Z,18.9
2019-04-24T17:10:24.483Z,18.8
2019-04-24T17:15:27.332Z,18.4
2019-04-24T17:40:02.343Z,17.2
2019-04-24T17:45:28.371Z,17.1
2019-04-24T17:50:28.744Z,17
2019-04-24T17:55:30.639Z,16.9
2019-04-24T18:00:02.091Z,16.8
2019-04-24T18:05:01.674Z,16.6
2019-04-24T18:10:03.079Z,16.4
2019-04-24T18:15:02.655Z,16.2
2019-04-24T18:20:02.602Z,16
2019-04-24T18:25:02.567Z,15.8
2019-04-24T18:30:02.055Z,15.6
2019-04-24T18:35:02.047Z,15.5
2019-04-24T18:40:02.144Z,15.4
2019-04-24T18:45:01.623Z,15.3
2019-04-24T18:50:02.420Z,15.3
2019-04-24T18:55:02.342Z,15.2
2019-04-24T19:00:02.366Z,15.1
2019-04-24T19:05:02.025Z,15
2019-04-24T19:10:02.729Z,15
2019-04-24T19:15:02.574Z,14.9
2019-04-24T19:20:03.084Z,14.9
2019-04-24T19:25:01.917Z,14.9
2019-04-24T19:30:02.015Z,14.9
2019-04-24T19:35:02.578Z,14.9
2019-04-24T19:40:02.281Z,15
2019-04-24T19:45:01.702Z,14.9
2019-04-24T19:50:07.306Z,14.9
2019-04-24T19:55:01.792Z,14.8
2019-04-24T20:00:02.017Z,14.8
2019-04-24T20:05:02.178Z,14.7
2019-04-24T20:10:02.706Z,14.6
2019-04-24T20:15:02.031Z,14.6
2019-04-24T20:20:01.797Z,14.5
2019-04-24T20:25:02.550Z,14.5
2019-04-24T20:30:02.962Z,14.4
2019-04-24T20:35:02.236Z,14.4
2019-04-24T20:40:01.980Z,14.3
2019-04-24T20:45:01.461Z,14.3
2019-04-24T20:50:01.953Z,14.2
2019-04-24T20:55:02.571Z,14.2
2019-04-24T21:00:02.029Z,14.2
2019-04-24T21:05:01.478Z,14.3
2019-04-24T21:10:02.015Z,14.3
2019-04-24T21:15:01.464Z,14.4
2019-04-24T21:20:02.476Z,14.4
2019-04-24T21:25:01.754Z,14.4
2019-04-24T21:30:01.804Z,14.3
2019-04-24T21:35:01.165Z,14.3
2019-04-24T21:40:01.888Z,14.3
2019-04-24T21:45:02.086Z,14.2
2019-04-24T21:50:02.442Z,14.2
2019-04-24T21:55:01.479Z,14.2
2019-04-24T22:00:02.047Z,14.1
2019-04-24T22:05:01.837Z,14.1
2019-04-24T22:10:01.619Z,14
2019-04-24T22:15:02.099Z,14
2019-04-24T22:20:02.196Z,14
2019-04-24T22:25:02.402Z,13.9
2019-04-24T22:30:01.984Z,13.8
2019-04-24T22:35:01.384Z,13.7
2019-04-24T22:40:02.745Z,13.7
2019-04-24T22:45:02.244Z,13.7
2019-04-24T22:50:02.363Z,13.6
2019-04-24T22:55:02.321Z,13.6
2019-04-24T23:00:02.413Z,13.6
2019-04-24T23:05:01.701Z,13.5
2019-04-24T23:10:02.830Z,13.5
2019-04-24T23:15:01.281Z,13.5
2019-04-24T23:20:02.071Z,13.5
2019-04-24T23:25:02.346Z,13.5
2019-04-24T23:30:01.856Z,13.4
2019-04-24T23:35:02.096Z,13.4
2019-04-24T23:40:01.701Z,13.3
2019-04-24T23:45:02.464Z,13.2
2019-04-24T23:50:02.104Z,13.2
2019-04-24T23:55:06.678Z,13.2
